createdAt,value
2019-06-15T00:03:56.716Z,17.60
2019-06-15T00:08:05.989Z,17.60
2019-06-15T00:12:14.947Z,17.60
2019-06-15T00:16:23.822Z,17.60
2019-06-15T00:20:33.105Z,17.50
2019-06-15T00:24:41.965Z,17.50
2019-06-15T00:28:50.813Z,17.40
2019-06-15T00:32:59.693Z,17.30
2019-06-15T00:37:08.927Z,17.20
2019-06-15T00:41:17.869Z,17.20
2019-06-15T00:45:26.895Z,17.20
2019-06-15T00:49:36.069Z,17.20
2019-06-15T00:53:44.900Z,17.20
2019-06-15T00:57:53.915Z,17.20
2019-06-15T01:02:03.260Z,17.20
2019-06-15T01:06:12.276Z,17.20
2019-06-15T01:10:27.247Z,17.20
2019-06-15T01:14:36.065Z,17.20
2019-06-15T01:18:44.879Z,17.10
2019-06-15T01:22:53.977Z,17.10
2019-06-15T01:27:02.835Z,17.00
2019-06-15T01:31:11.705Z,17.00
2019-06-15T01:35:20.715Z,17.00
2019-06-15T01:39:29.515Z,17.00
2019-06-15T01:43:38.341Z,16.90
2019-06-15T01:47:47.164Z,16.90
2019-06-15T01:51:56.358Z,16.90
2019-06-15T01:56:05.301Z,17.00
2019-06-15T02:00:20.799Z,17.00
2019-06-15T02:04:29.615Z,17.00
2019-06-15T02:08:38.628Z,16.90
2019-06-15T02:12:47.439Z,16.90
2019-06-15T02:16:56.337Z,16.90
2019-06-15T02:21:05.919Z,16.90
2019-06-15T02:25:34.855Z,16.90
2019-06-15T02:29:32.528Z,16.90
2019-06-15T02:33:41.394Z,16.90
2019-06-15T02:37:50.215Z,16.80
2019-06-15T02:41:59.138Z,16.80
2019-06-15T02:46:08.098Z,16.70
2019-06-15T02:50:17.464Z,16.80
2019-06-15T02:54:26.280Z,16.70
2019-06-15T02:58:35.092Z,16.60
2019-06-15T03:02:44.064Z,16.60
2019-06-15T03:06:53.217Z,16.60
2019-06-15T03:11:02.400Z,16.70
2019-06-15T03:15:11.452Z,16.70
2019-06-15T03:19:20.260Z,16.80
2019-06-15T03:23:29.084Z,16.80
2019-06-15T03:27:37.864Z,16.90
2019-06-15T03:31:46.762Z,16.90
2019-06-15T03:35:55.640Z,16.90
2019-06-15T03:40:05.405Z,16.90
2019-06-15T03:44:14.213Z,16.90
2019-06-15T03:48:23.102Z,16.90
2019-06-15T03:52:32.018Z,16.90
2019-06-15T03:56:40.960Z,16.90
2019-06-15T04:00:56.027Z,16.90
2019-06-15T04:05:05.085Z,16.90
2019-06-15T04:09:13.971Z,16.90
2019-06-15T04:13:22.862Z,16.90
2019-06-15T04:17:31.676Z,16.90
2019-06-15T04:21:40.492Z,16.80
2019-06-15T04:25:49.421Z,16.80
2019-06-15T04:29:58.268Z,16.90
2019-06-15T04:34:07.358Z,16.90
2019-06-15T04:38:16.252Z,17.00
2019-06-15T04:42:25.171Z,17.00
2019-06-15T04:46:34.232Z,17.10
2019-06-15T04:50:43.218Z,17.20
2019-06-15T04:54:52.103Z,17.30
2019-06-15T04:59:00.904Z,17.30
2019-06-15T05:03:09.707Z,17.30
2019-06-15T05:07:18.787Z,17.30
2019-06-15T05:11:31.492Z,17.40
2019-06-15T05:15:40.850Z,17.40
2019-06-15T05:19:49.766Z,17.60
2019-06-15T05:23:58.561Z,17.70
2019-06-15T05:28:07.388Z,17.90
2019-06-15T05:32:16.209Z,17.80
2019-06-15T05:36:25.014Z,17.70
2019-06-15T05:40:33.932Z,17.70
2019-06-15T05:44:42.725Z,17.80
2019-06-15T05:48:51.559Z,18.10
2019-06-15T05:53:00.575Z,18.40
2019-06-15T05:57:20.900Z,18.80
2019-06-15T06:01:20.038Z,19.00
2019-06-15T06:05:28.869Z,19.10
2019-06-15T06:09:38.010Z,19.10
2019-06-15T06:13:46.888Z,19.00
2019-06-15T06:17:56.225Z,18.90
2019-06-15T06:22:05.352Z,19.00
2019-06-15T06:26:14.302Z,18.90
2019-06-15T06:30:23.285Z,18.90
2019-06-15T06:34:32.166Z,19.10
2019-06-15T06:38:41.116Z,19.40
2019-06-15T06:42:50.136Z,19.30
2019-06-15T06:46:59.222Z,19.20
2019-06-15T06:51:08.109Z,19.50
2019-06-15T06:55:17.505Z,19.60
2019-06-15T06:59:26.505Z,19.80
2019-06-15T07:03:35.531Z,20.10
2019-06-15T07:07:44.697Z,20.40
2019-06-15T07:11:53.572Z,20.50
2019-06-15T07:16:02.461Z,20.50
2019-06-15T07:20:11.504Z,20.60
2019-06-15T07:24:20.552Z,20.70
2019-06-15T07:28:29.358Z,20.80
2019-06-15T07:32:38.263Z,20.90
2019-06-15T07:36:47.117Z,21.00
2019-06-15T07:40:56.367Z,20.90
2019-06-15T07:45:05.724Z,20.90
2019-06-15T07:49:14.968Z,20.80
2019-06-15T07:53:23.901Z,20.80
2019-06-15T07:57:32.863Z,21.00
2019-06-15T08:01:41.759Z,21.10
2019-06-15T08:05:50.675Z,21.20
2019-06-15T08:09:59.525Z,21.30
2019-06-15T08:14:08.543Z,21.40
2019-06-15T08:18:17.429Z,21.60
2019-06-15T08:22:26.248Z,21.70
2019-06-15T08:26:35.152Z,21.90
2019-06-15T08:30:44.427Z,22.10
2019-06-15T08:34:53.259Z,22.30
2019-06-15T08:39:02.124Z,22.70
2019-06-15T08:43:11.122Z,23.00
2019-06-15T08:47:19.965Z,22.90
2019-06-15T08:51:28.918Z,22.90
2019-06-15T08:55:37.832Z,23.10
2019-06-15T08:59:46.710Z,23.30
2019-06-15T09:03:55.606Z,23.40
2019-06-15T09:08:04.625Z,23.60
2019-06-15T09:12:14.056Z,23.50
2019-06-15T09:16:25.660Z,22.90
2019-06-15T09:20:33.601Z,22.50
2019-06-15T09:24:42.616Z,22.40
2019-06-15T09:28:52.052Z,22.20
2019-06-15T09:33:00.930Z,22.40
2019-06-15T09:37:09.766Z,22.80
2019-06-15T09:41:18.680Z,24.00
2019-06-15T09:45:27.690Z,24.70
2019-06-15T09:49:36.601Z,24.10
2019-06-15T09:53:45.569Z,23.50
2019-06-15T09:57:54.402Z,23.20
2019-06-15T10:02:03.325Z,23.00
2019-06-15T10:06:12.145Z,22.90
2019-06-15T10:10:21.044Z,22.60
2019-06-15T10:14:29.869Z,22.10
2019-06-15T10:18:39.043Z,22.00
2019-06-15T10:22:48.057Z,21.60
2019-06-15T10:26:57.045Z,21.40
2019-06-15T10:31:05.948Z,21.90
2019-06-15T10:35:15.846Z,23.10
2019-06-15T10:39:24.652Z,23.40
2019-06-15T10:43:33.564Z,24.40
2019-06-15T10:47:42.551Z,24.50
2019-06-15T10:51:51.748Z,23.90
2019-06-15T10:56:00.559Z,23.80
2019-06-15T11:00:09.943Z,23.80
2019-06-15T11:04:18.837Z,24.30
2019-06-15T11:08:28.057Z,24.50
2019-06-15T11:12:45.828Z,24.80
2019-06-15T11:16:47.654Z,24.50
2019-06-15T11:20:58.888Z,24.80
2019-06-15T11:25:07.481Z,25.20
2019-06-15T11:29:16.331Z,25.50
2019-06-15T11:33:25.419Z,25.90
2019-06-15T11:37:34.314Z,26.30
2019-06-15T11:41:43.284Z,26.50
2019-06-15T11:45:52.576Z,26.50
2019-06-15T11:50:01.743Z,26.90
2019-06-15T11:54:10.937Z,26.90
2019-06-15T11:58:19.765Z,27.10
2019-06-15T12:02:28.584Z,27.50
2019-06-15T12:06:37.417Z,27.70
2019-06-15T12:10:46.435Z,27.60
2019-06-15T12:14:55.327Z,27.40
2019-06-15T12:19:04.268Z,27.40
2019-06-15T12:23:13.396Z,27.60
2019-06-15T12:27:22.500Z,27.60
2019-06-15T12:31:31.352Z,27.50
2019-06-15T12:35:40.239Z,27.20
2019-06-15T12:39:49.070Z,26.40
2019-06-15T12:43:58.167Z,26.70
2019-06-15T12:48:07.168Z,26.70
2019-06-15T12:52:16.308Z,26.80
2019-06-15T12:56:25.161Z,26.10
2019-06-15T13:00:37.353Z,26.60
2019-06-15T13:04:46.172Z,27.20
2019-06-15T13:08:54.981Z,27.40
2019-06-15T13:13:03.821Z,27.60
2019-06-15T13:17:12.738Z,27.20
2019-06-15T13:21:21.540Z,27.50
2019-06-15T13:25:30.400Z,27.30
2019-06-15T13:29:39.210Z,27.50
2019-06-15T13:33:48.354Z,27.80
2019-06-15T13:37:57.182Z,28.10
2019-06-15T13:42:06.218Z,28.30
2019-06-15T13:46:15.121Z,28.10
2019-06-15T13:50:24.051Z,27.40
2019-06-15T13:54:32.937Z,27.20
2019-06-15T13:58:41.780Z,26.90
2019-06-15T14:02:50.712Z,27.10
2019-06-15T14:06:59.513Z,27.40
2019-06-15T14:11:08.325Z,27.50
2019-06-15T14:15:17.278Z,27.70
2019-06-15T14:19:26.108Z,28.10
2019-06-15T14:23:34.932Z,28.20
2019-06-15T14:27:43.796Z,28.40
2019-06-15T14:31:52.631Z,28.20
2019-06-15T14:36:01.580Z,27.50
2019-06-15T14:40:11.963Z,26.70
2019-06-15T14:44:21.036Z,26.30
2019-06-15T14:48:30.030Z,26.50
2019-06-15T14:52:39.227Z,26.90
2019-06-15T14:56:48.036Z,27.10
2019-06-15T15:00:57.246Z,26.60
2019-06-15T15:05:06.984Z,26.50
2019-06-15T15:09:17.041Z,26.20
2019-06-15T15:13:26.421Z,26.70
2019-06-15T15:17:37.244Z,27.10
2019-06-15T15:21:46.217Z,27.70
2019-06-15T15:25:57.420Z,28.00
2019-06-15T15:30:06.326Z,28.40
2019-06-15T15:34:17.387Z,28.70
2019-06-15T15:38:26.515Z,28.70
2019-06-15T15:42:37.135Z,28.10
2019-06-15T15:46:46.450Z,27.60
2019-06-15T15:50:57.381Z,27.50
2019-06-15T15:55:06.728Z,27.40
2019-06-15T15:59:16.291Z,27.70
2019-06-15T16:03:26.472Z,27.80
2019-06-15T16:07:36.397Z,27.70
2019-06-15T16:11:46.366Z,27.70
2019-06-15T16:15:55.418Z,27.10
2019-06-15T16:20:06.581Z,26.50
2019-06-15T16:24:16.637Z,26.10
2019-06-15T16:28:26.366Z,26.40
2019-06-15T16:32:37.218Z,26.40
2019-06-15T16:36:47.062Z,26.40
2019-06-15T16:40:56.201Z,26.30
2019-06-15T16:45:06.804Z,26.40
2019-06-15T16:49:19.840Z,26.40
2019-06-15T16:53:26.687Z,26.30
2019-06-15T16:57:37.038Z,26.10
2019-06-15T17:01:45.942Z,26.10
2019-06-15T17:05:57.200Z,26.20
2019-06-15T17:10:06.359Z,26.60
2019-06-15T17:14:17.166Z,27.50
2019-06-15T17:18:26.277Z,28.80
2019-06-15T17:22:37.857Z,30.30
2019-06-15T17:26:46.852Z,31.20
2019-06-15T17:30:56.654Z,30.40
2019-06-15T17:35:06.178Z,28.60
2019-06-15T17:39:17.109Z,27.20
2019-06-15T17:43:26.867Z,26.40
2019-06-15T17:47:35.920Z,25.70
2019-06-15T17:51:46.133Z,25.20
2019-06-15T17:55:56.083Z,25.00
2019-06-15T18:00:07.181Z,27.00
2019-06-15T18:04:16.493Z,29.10
2019-06-15T18:08:26.895Z,28.90
2019-06-15T18:12:35.866Z,27.50
2019-06-15T18:16:47.103Z,26.10
2019-06-15T18:20:56.831Z,25.10
2019-06-15T18:25:06.432Z,24.40
2019-06-15T18:29:16.781Z,23.80
2019-06-15T18:33:27.302Z,23.30
2019-06-15T18:37:37.113Z,23.10
2019-06-15T18:41:46.423Z,22.80
2019-06-15T18:45:56.808Z,22.50
2019-06-15T18:50:07.576Z,22.30
2019-06-15T18:54:16.547Z,22.00
2019-06-15T18:58:26.199Z,21.90
2019-06-15T19:02:36.244Z,21.70
2019-06-15T19:06:46.753Z,21.50
2019-06-15T19:10:56.355Z,21.20
2019-06-15T19:15:07.352Z,20.90
2019-06-15T19:19:17.057Z,20.70
2019-06-15T19:23:26.751Z,20.50
2019-06-15T19:27:36.619Z,20.20
2019-06-15T19:31:46.799Z,19.90
2019-06-15T19:35:56.959Z,19.80
2019-06-15T19:40:07.231Z,19.70
2019-06-15T19:44:16.485Z,19.50
2019-06-15T19:48:26.849Z,19.40
2019-06-15T19:52:36.123Z,19.10
2019-06-15T19:56:46.652Z,18.90
2019-06-15T20:00:56.469Z,18.70
2019-06-15T20:05:06.619Z,18.60
2019-06-15T20:09:15.384Z,18.40
2019-06-15T20:13:24.220Z,18.30
2019-06-15T20:17:33.054Z,18.20
2019-06-15T20:21:41.813Z,18.10
2019-06-15T20:25:50.570Z,18.00
2019-06-15T20:29:59.698Z,17.90
2019-06-15T20:34:08.526Z,17.90
2019-06-15T20:38:17.375Z,17.80
2019-06-15T20:42:27.020Z,17.70
2019-06-15T20:46:37.123Z,17.70
2019-06-15T20:50:47.127Z,17.60
2019-06-15T20:54:57.084Z,17.50
2019-06-15T20:59:06.422Z,17.40
2019-06-15T21:03:16.140Z,17.30
2019-06-15T21:07:26.939Z,17.20
2019-06-15T21:11:36.189Z,17.10
2019-06-15T21:15:47.379Z,17.10
2019-06-15T21:19:56.623Z,17.10
2019-06-15T21:24:06.383Z,17.10
2019-06-15T21:28:16.908Z,17.00
2019-06-15T21:32:26.280Z,17.00
2019-06-15T21:36:37.384Z,17.00
2019-06-15T21:40:47.487Z,17.00
2019-06-15T21:44:56.253Z,17.00
2019-06-15T21:49:07.251Z,17.00
2019-06-15T21:53:16.510Z,17.00
2019-06-15T21:57:26.880Z,16.90
2019-06-15T22:01:37.470Z,16.90
2019-06-15T22:06:02.118Z,16.90
2019-06-15T22:09:57.526Z,16.90
2019-06-15T22:14:06.460Z,16.80
2019-06-15T22:18:16.431Z,16.70
2019-06-15T22:22:27.257Z,16.60
2019-06-15T22:26:35.818Z,16.50
2019-06-15T22:30:46.271Z,16.40
2019-06-15T22:34:56.332Z,16.30
2019-06-15T22:39:06.612Z,16.20
2019-06-15T22:43:16.772Z,16.10
2019-06-15T22:47:27.078Z,16.20
2019-06-15T22:51:36.810Z,16.20
2019-06-15T22:55:46.337Z,16.20
2019-06-15T22:59:56.760Z,16.10
2019-06-15T23:04:06.603Z,16.20
2019-06-15T23:08:16.367Z,16.20
2019-06-15T23:12:25.174Z,16.20
2019-06-15T23:16:36.657Z,16.20
2019-06-15T23:20:46.196Z,16.20
2019-06-15T23:24:56.328Z,16.10
2019-06-15T23:29:06.929Z,16.10
2019-06-15T23:33:17.273Z,16.10
2019-06-15T23:37:26.756Z,16.10
2019-06-15T23:41:36.258Z,16.10
2019-06-15T23:45:46.811Z,16.00
2019-06-15T23:49:56.495Z,15.90
2019-06-15T23:54:05.369Z,15.80
2019-06-15T23:58:14.123Z,15.80
